Time;durP1;ratioP1;P1;durP2;ratioP2;P2;SDS_P1;SDS_P2;PMS_P1;PMS_P2;Temp;Humidity;BMP_temperature;BMP_pressure;BME280_temperature;BME280_humidity;BME280_pressure;Samples;Min_cycle;Max_cycle;Signal;HPM_P1;HPM_P2
2023/09/06 00:01:27;;;;;;;5.33;1.70;;;17.50;99.90;;;;;;5076349;28;20448;-78
2023/09/06 00:03:55;;;;;;;1.70;1.43;;;17.40;99.90;;;;;;5075948;28;20476;-78
2023/09/06 00:06:23;;;;;;;3.20;1.57;;;17.40;99.90;;;;;;5076146;28;20491;-78
2023/09/06 00:08:50;;;;;;;1.10;1.00;;;17.30;99.90;;;;;;5075878;28;20449;-78
2023/09/06 00:11:17;;;;;;;2.27;1.60;;;17.30;99.90;;;;;;5076101;28;20432;-78
2023/09/06 00:13:44;;;;;;;2.50;1.47;;;17.20;99.90;;;;;;5076024;28;20449;-78
2023/09/06 00:16:11;;;;;;;4.27;1.87;;;17.20;99.90;;;;;;5076034;28;20460;-78
2023/09/06 00:18:38;;;;;;;1.77;1.00;;;17.10;99.90;;;;;;5076109;28;20449;-78
2023/09/06 00:21:05;;;;;;;2.90;1.80;;;17.10;99.90;;;;;;5076200;28;20456;-78
2023/09/06 00:23:34;;;;;;;2.00;1.20;;;17.00;99.90;;;;;;5075887;28;20929;-78
2023/09/06 00:26:00;;;;;;;1.23;0.90;;;17.00;99.90;;;;;;5075546;28;21003;-78
2023/09/06 00:28:27;;;;;;;1.90;1.40;;;16.90;99.90;;;;;;5075484;28;20480;-78
2023/09/06 00:30:56;;;;;;;4.37;1.40;;;16.90;99.90;;;;;;5075898;28;20453;-78
2023/09/06 00:33:26;;;;;;;1.63;1.53;;;16.90;99.90;;;;;;5075689;28;20445;-78
2023/09/06 00:35:53;;;;;;;1.37;1.27;;;17.00;99.90;;;;;;5075697;28;20490;-78
2023/09/06 00:38:20;;;;;;;2.27;1.50;;;16.90;99.90;;;;;;5075676;28;20535;-78
2023/09/06 00:40:51;;;;;;;3.00;1.60;;;16.80;99.90;;;;;;5075801;28;20448;-78
2023/09/06 00:43:18;;;;;;;1.00;0.90;;;16.80;99.90;;;;;;5075289;28;20461;-78
2023/09/06 00:45:48;;;;;;;3.70;1.83;;;16.70;99.90;;;;;;5075410;28;20461;-78
2023/09/06 00:48:19;;;;;;;2.90;1.80;;;16.60;99.90;;;;;;5074148;28;20503;-78
2023/09/06 00:50:50;;;;;;;1.50;1.40;;;16.60;99.90;;;;;;5075230;28;20915;-78
2023/09/06 00:53:18;;;;;;;1.73;1.60;;;16.60;99.90;;;;;;5075424;28;20425;-78
2023/09/06 00:55:45;;;;;;;1.57;1.40;;;16.50;99.90;;;;;;5075286;28;20831;-78
2023/09/06 00:58:16;;;;;;;1.13;1.10;;;16.60;99.90;;;;;;5075341;28;20444;-78
2023/09/06 01:00:43;;;;;;;1.27;1.13;;;16.60;99.90;;;;;;5075337;28;20437;-78
2023/09/06 01:03:10;;;;;;;2.40;1.90;;;16.60;99.90;;;;;;5075157;28;20456;-78
2023/09/06 01:05:42;;;;;;;2.17;2.00;;;16.50;99.90;;;;;;5075123;28;20575;-78
2023/09/06 01:08:13;;;;;;;2.37;1.20;;;16.40;99.90;;;;;;5075090;28;20918;-78
2023/09/06 01:10:40;;;;;;;1.40;1.30;;;16.40;99.90;;;;;;5075974;28;20430;-78
2023/09/06 01:13:07;;;;;;;4.47;1.93;;;16.30;99.90;;;;;;5074979;28;20448;-78
2023/09/06 01:15:36;;;;;;;1.73;1.20;;;16.30;99.90;;;;;;5074934;28;20457;-78
2023/09/06 01:18:06;;;;;;;3.57;1.50;;;16.40;99.90;;;;;;5075170;28;20441;-78
2023/09/06 01:20:39;;;;;;;1.97;1.17;;;16.30;99.90;;;;;;5074872;28;20441;-78
2023/09/06 01:23:13;;;;;;;3.23;1.87;;;16.30;99.90;;;;;;5075133;28;20463;-78
2023/09/06 01:25:41;;;;;;;3.10;1.30;;;16.30;99.90;;;;;;5075316;28;20461;-78
2023/09/06 01:28:08;;;;;;;1.23;1.00;;;16.20;99.90;;;;;;5074262;28;20930;-78
2023/09/06 01:30:35;;;;;;;2.17;1.40;;;16.20;99.90;;;;;;5074449;28;20421;-78
2023/09/06 01:33:02;;;;;;;1.87;1.47;;;16.20;99.90;;;;;;5074635;28;20476;-78
2023/09/06 01:35:29;;;;;;;1.20;1.10;;;16.10;99.90;;;;;;5074523;28;20469;-78
2023/09/06 01:37:56;;;;;;;1.60;1.33;;;16.10;99.90;;;;;;5074510;28;20444;-78
2023/09/06 01:40:26;;;;;;;3.37;2.40;;;16.10;99.90;;;;;;5074475;28;20480;-78
2023/09/06 01:42:54;;;;;;;3.07;1.90;;;16.00;99.90;;;;;;5074119;28;20441;-78
2023/09/06 01:45:21;;;;;;;6.43;2.50;;;16.00;99.90;;;;;;5074217;28;20484;-78
2023/09/06 01:47:48;;;;;;;1.60;1.37;;;16.00;99.90;;;;;;5074347;28;20445;-78
2023/09/06 01:50:19;;;;;;;1.90;1.53;;;15.90;99.90;;;;;;5074302;28;20468;-78
2023/09/06 01:52:45;;;;;;;2.20;1.30;;;15.90;99.90;;;;;;5074265;28;20868;-78
2023/09/06 01:55:12;;;;;;;1.60;1.43;;;15.90;99.90;;;;;;5074138;28;20436;-78
2023/09/06 01:57:39;;;;;;;2.63;1.33;;;15.90;99.90;;;;;;5074130;28;20437;-78
2023/09/06 02:00:22;;;;;;;3.90;1.50;;;15.80;99.90;;;;;;5073911;28;20440;-78
2023/09/06 02:02:49;;;;;;;1.83;1.40;;;15.80;99.90;;;;;;5074066;28;20433;-78
2023/09/06 02:05:16;;;;;;;2.87;1.80;;;15.80;99.90;;;;;;5073863;28;20484;-78
2023/09/06 02:07:43;;;;;;;3.07;2.00;;;15.70;99.90;;;;;;5074199;28;20437;-78
2023/09/06 02:10:10;;;;;;;2.13;1.70;;;15.70;99.90;;;;;;5073904;28;20556;-78
2023/09/06 02:12:37;;;;;;;2.80;1.93;;;15.60;99.90;;;;;;5073860;28;20456;-78
2023/09/06 02:15:06;;;;;;;3.60;1.57;;;15.60;99.90;;;;;;5073729;28;20441;-78
2023/09/06 02:17:34;;;;;;;5.03;1.77;;;15.60;99.90;;;;;;5073457;28;20861;-78
2023/09/06 02:20:12;;;;;;;2.57;1.80;;;15.50;99.90;;;;;;5073739;28;20453;-78
2023/09/06 02:22:40;;;;;;;3.60;1.50;;;15.50;99.90;;;;;;5073744;28;20789;-78
2023/09/06 02:25:08;;;;;;;3.67;1.87;;;15.50;99.90;;;;;;5073259;28;20476;-78
2023/09/06 02:27:35;;;;;;;3.10;1.27;;;15.50;99.90;;;;;;5073471;28;20449;-78
2023/09/06 02:30:06;;;;;;;2.70;1.40;;;15.40;99.90;;;;;;5073237;28;20465;-78
2023/09/06 02:32:34;;;;;;;2.87;2.20;;;15.40;99.90;;;;;;5073591;28;20869;-78
2023/09/06 02:35:02;;;;;;;4.03;1.80;;;15.40;99.90;;;;;;5073569;28;20449;-78
2023/09/06 02:37:29;;;;;;;5.27;2.03;;;15.30;99.90;;;;;;5073491;28;20452;-78
2023/09/06 02:39:56;;;;;;;1.83;1.50;;;15.30;99.90;;;;;;5073494;28;20445;-78
2023/09/06 02:42:23;;;;;;;3.47;1.60;;;15.30;99.90;;;;;;5073234;28;20822;-78
2023/09/06 02:44:50;;;;;;;1.70;1.33;;;15.30;99.90;;;;;;5073271;28;20481;-78
2023/09/06 02:47:17;;;;;;;3.73;2.33;;;15.30;99.90;;;;;;5073333;28;20560;-78
2023/09/06 02:49:47;;;;;;;1.80;1.37;;;15.20;99.90;;;;;;5073427;28;20452;-78
2023/09/06 02:52:20;;;;;;;3.77;2.33;;;15.20;99.90;;;;;;5073833;28;20771;-78
2023/09/06 02:54:47;;;;;;;2.17;1.33;;;15.10;99.90;;;;;;5073608;28;20817;-78
2023/09/06 02:57:16;;;;;;;2.10;1.60;;;15.10;99.90;;;;;;5072985;28;20452;-78
2023/09/06 02:59:43;;;;;;;1.77;1.67;;;15.40;99.90;;;;;;5073324;28;20448;-78
2023/09/06 03:02:12;;;;;;;1.27;1.17;;;15.10;99.90;;;;;;5073248;28;20463;-78
2023/09/06 03:04:40;;;;;;;1.90;1.57;;;15.10;99.90;;;;;;5073131;28;20480;-78
2023/09/06 03:07:09;;;;;;;1.63;1.53;;;15.10;99.90;;;;;;5073035;28;20556;-78
2023/09/06 03:09:35;;;;;;;2.37;1.50;;;15.00;99.90;;;;;;5073180;28;20459;-78
2023/09/06 03:12:11;;;;;;;2.23;1.43;;;15.00;99.90;;;;;;5076206;28;20456;-78
2023/09/06 03:14:38;;;;;;;1.43;1.30;;;15.00;99.90;;;;;;5077227;28;20818;-78
2023/09/06 03:17:08;;;;;;;2.33;1.73;;;15.00;99.90;;;;;;5076910;28;20453;-78
2023/09/06 03:19:38;;;;;;;2.00;1.40;;;14.90;99.90;;;;;;5076898;28;20942;-78
2023/09/06 03:22:07;;;;;;;1.90;1.60;;;14.90;99.90;;;;;;5077158;28;20479;-78
2023/09/06 03:24:35;;;;;;;2.97;1.73;;;14.90;99.90;;;;;;5076729;28;20483;-78
2023/09/06 03:27:07;;;;;;;2.60;1.10;;;14.90;99.90;;;;;;5076681;28;20993;-78
2023/09/06 03:29:36;;;;;;;3.20;1.50;;;14.90;99.90;;;;;;5076609;28;20480;-78
2023/09/06 03:32:04;;;;;;;3.40;2.50;;;14.90;99.90;;;;;;5077214;28;20467;-78
2023/09/06 03:34:30;;;;;;;2.07;1.77;;;14.80;99.90;;;;;;5076892;28;20451;-78
2023/09/06 03:36:57;;;;;;;3.63;1.30;;;14.90;99.90;;;;;;5076782;28;20466;-78
2023/09/06 03:39:28;;;;;;;4.70;1.60;;;14.90;99.90;;;;;;5076823;28;20452;-78
2023/09/06 03:41:59;;;;;;;1.30;1.20;;;14.90;99.90;;;;;;5076814;28;20475;-78
2023/09/06 03:44:27;;;;;;;3.23;1.93;;;14.90;99.90;;;;;;5076353;28;20981;-78
2023/09/06 03:46:56;;;;;;;4.33;1.90;;;14.90;99.90;;;;;;5076537;28;20869;-78
2023/09/06 03:49:23;;;;;;;1.93;1.17;;;14.80;99.90;;;;;;5076803;28;20441;-78
2023/09/06 03:51:50;;;;;;;2.23;1.40;;;14.80;99.90;;;;;;5076701;28;20479;-78
2023/09/06 03:54:18;;;;;;;1.20;1.07;;;14.80;99.90;;;;;;5076221;28;20789;-78
2023/09/06 03:56:45;;;;;;;7.23;1.87;;;14.80;99.90;;;;;;5076424;28;20468;-78
2023/09/06 03:59:13;;;;;;;9.83;1.63;;;14.80;99.90;;;;;;5076406;28;20456;-78
2023/09/06 04:01:43;;;;;;;2.57;1.90;;;14.80;99.90;;;;;;5076165;28;20433;-78
2023/09/06 04:04:10;;;;;;;1.53;1.37;;;14.80;99.90;;;;;;5076006;28;20441;-78
2023/09/06 04:06:37;;;;;;;2.77;1.37;;;14.70;99.90;;;;;;5076256;28;20475;-78
2023/09/06 04:09:05;;;;;;;1.83;1.37;;;14.70;99.90;;;;;;5076116;28;20814;-78
2023/09/06 04:11:32;;;;;;;5.83;1.47;;;14.70;99.90;;;;;;5076168;28;21009;-78
2023/09/06 04:13:59;;;;;;;2.70;1.40;;;14.70;99.90;;;;;;5076440;28;20445;-78
2023/09/06 04:16:27;;;;;;;2.60;1.50;;;14.70;99.90;;;;;;5076092;28;20467;-78
2023/09/06 04:18:54;;;;;;;2.17;1.73;;;14.70;99.90;;;;;;5076096;28;20455;-78
2023/09/06 04:21:22;;;;;;;4.27;2.37;;;14.70;99.90;;;;;;5076007;28;20453;-78
2023/09/06 04:23:49;;;;;;;4.10;2.30;;;14.60;99.90;;;;;;5075685;28;20964;-78
2023/09/06 04:26:15;;;;;;;3.80;1.47;;;14.60;99.90;;;;;;5076106;28;20491;-78
2023/09/06 04:28:42;;;;;;;6.37;1.87;;;14.70;99.90;;;;;;5075583;28;20495;-79
2023/09/06 04:31:09;;;;;;;2.13;1.47;;;14.70;99.90;;;;;;5075862;28;20463;-78
2023/09/06 04:33:37;;;;;;;3.20;1.60;;;14.60;99.90;;;;;;5075575;28;20926;-78
2023/09/06 04:36:04;;;;;;;3.87;2.33;;;14.70;99.90;;;;;;5075700;28;20465;-78
2023/09/06 04:38:32;;;;;;;1.60;1.50;;;14.70;99.90;;;;;;5075420;28;20452;-78
2023/09/06 04:40:59;;;;;;;2.80;1.80;;;14.70;99.90;;;;;;5075661;28;20452;-78
2023/09/06 04:43:28;;;;;;;5.30;1.80;;;14.70;99.90;;;;;;5076488;28;20453;-78
2023/09/06 04:45:54;;;;;;;1.90;1.70;;;14.70;99.90;;;;;;5075460;28;20493;-78
2023/09/06 04:48:23;;;;;;;2.23;1.80;;;14.70;99.90;;;;;;5075520;28;20445;-78
2023/09/06 04:50:51;;;;;;;2.93;1.70;;;14.60;99.90;;;;;;5075914;28;20549;-78
2023/09/06 04:53:18;;;;;;;3.27;2.30;;;14.60;99.90;;;;;;5075415;28;20861;-78
2023/09/06 04:55:45;;;;;;;3.10;1.80;;;14.50;99.90;;;;;;5075363;28;20472;-78
2023/09/06 04:58:13;;;;;;;4.57;1.77;;;14.50;99.90;;;;;;5075396;28;20526;-78
2023/09/06 05:00:43;;;;;;;1.70;1.60;;;14.50;99.90;;;;;;5075572;28;20444;-78
2023/09/06 05:03:11;;;;;;;2.73;1.57;;;14.50;99.90;;;;;;5075262;28;20539;-78
2023/09/06 05:05:37;;;;;;;3.60;2.47;;;14.50;99.90;;;;;;5074779;28;20493;-78
2023/09/06 05:08:07;;;;;;;2.57;1.87;;;14.50;99.90;;;;;;5075151;28;20452;-78
2023/09/06 05:10:35;;;;;;;2.90;2.47;;;14.50;99.90;;;;;;5075151;28;20449;-78
2023/09/06 05:13:02;;;;;;;2.83;2.37;;;14.50;99.90;;;;;;5075059;28;20448;-78
2023/09/06 05:15:29;;;;;;;2.00;1.53;;;14.50;99.90;;;;;;5074677;28;20472;-78
2023/09/06 05:17:55;;;;;;;1.63;1.50;;;14.50;99.90;;;;;;5074694;28;20440;-78
2023/09/06 05:20:31;;;;;;;2.73;1.60;;;14.50;99.90;;;;;;5074945;28;20445;-78
2023/09/06 05:23:00;;;;;;;4.87;3.07;;;14.40;99.90;;;;;;5074848;28;20445;-78
2023/09/06 05:25:29;;;;;;;3.80;2.00;;;14.50;99.90;;;;;;5074698;28;20538;-78
2023/09/06 05:27:58;;;;;;;1.50;1.40;;;14.40;99.90;;;;;;5074283;28;20957;-78
2023/09/06 05:30:25;;;;;;;2.17;1.67;;;14.40;99.90;;;;;;5074446;28;20830;-78
2023/09/06 05:32:52;;;;;;;4.47;2.20;;;14.40;99.90;;;;;;5074417;28;20953;-78
2023/09/06 05:35:18;;;;;;;2.30;1.30;;;14.40;99.90;;;;;;5074105;28;20436;-78
2023/09/06 05:37:45;;;;;;;2.03;1.87;;;14.40;99.90;;;;;;5074533;28;20447;-78
2023/09/06 05:40:13;;;;;;;3.43;2.50;;;14.50;99.90;;;;;;5074546;28;20796;-78
2023/09/06 05:42:42;;;;;;;3.50;1.90;;;14.40;99.90;;;;;;5074495;28;20441;-78
2023/09/06 05:45:11;;;;;;;1.37;1.30;;;14.40;99.90;;;;;;5073968;28;20476;-78
2023/09/06 05:47:39;;;;;;;2.03;1.60;;;14.50;99.90;;;;;;5074372;28;20445;-78
2023/09/06 05:50:08;;;;;;;5.17;2.50;;;14.50;99.90;;;;;;5074058;28;20435;-78
2023/09/06 05:52:35;;;;;;;2.00;1.67;;;14.60;99.90;;;;;;5074248;28;20481;-78
2023/09/06 05:55:02;;;;;;;2.17;1.40;;;14.60;99.90;;;;;;5074185;28;20437;-78
2023/09/06 05:57:29;;;;;;;1.97;1.50;;;14.70;99.90;;;;;;5073901;28;20494;-78
2023/09/06 05:59:57;;;;;;;2.60;2.10;;;14.70;99.90;;;;;;5073825;28;20445;-78
2023/09/06 06:02:24;;;;;;;2.90;2.20;;;14.90;99.90;;;;;;5073827;28;20437;-78
2023/09/06 06:04:52;;;;;;;3.70;1.90;;;14.80;99.90;;;;;;5073696;28;20436;-78
2023/09/06 06:07:18;;;;;;;2.60;1.67;;;14.80;99.90;;;;;;5074147;28;20522;-78
2023/09/06 06:09:45;;;;;;;2.40;1.87;;;14.90;99.90;;;;;;5073678;28;20960;-78
2023/09/06 06:12:13;;;;;;;2.20;1.97;;;14.90;99.90;;;;;;5074872;28;20456;-78
2023/09/06 06:14:41;;;;;;;1.90;1.70;;;15.00;99.90;;;;;;5073872;28;20443;-78
2023/09/06 06:17:09;;;;;;;1.67;1.57;;;15.10;99.90;;;;;;5073746;28;20472;-78
2023/09/06 06:19:36;;;;;;;2.57;1.57;;;15.10;99.90;;;;;;5073939;28;20482;-78
2023/09/06 06:22:04;;;;;;;3.90;2.10;;;15.30;99.90;;;;;;5073681;28;20506;-78
2023/09/06 06:24:31;;;;;;;3.33;2.13;;;15.40;99.90;;;;;;5073833;28;20437;-79
2023/09/06 06:26:59;;;;;;;4.87;1.97;;;15.60;99.90;;;;;;5073529;28;20488;-78
2023/09/06 06:29:25;;;;;;;3.03;2.47;;;15.80;99.90;;;;;;5073288;28;20472;-78
2023/09/06 06:31:53;;;;;;;2.30;2.07;;;16.00;99.90;;;;;;5073563;28;20445;-78
2023/09/06 06:34:21;;;;;;;1.90;1.40;;;16.20;99.90;;;;;;5073336;28;20969;-78
2023/09/06 06:36:48;;;;;;;2.23;1.60;;;16.30;99.90;;;;;;5073499;28;20461;-78
2023/09/06 06:39:15;;;;;;;3.50;2.17;;;16.50;99.90;;;;;;5073462;28;20803;-78
2023/09/06 06:41:44;;;;;;;2.10;1.93;;;16.60;99.90;;;;;;5073729;28;20488;-78
2023/09/06 06:44:11;;;;;;;3.40;1.90;;;16.80;99.90;;;;;;5074511;28;20803;-81
2023/09/06 06:46:40;;;;;;;7.87;2.60;;;16.80;99.90;;;;;;5072116;28;21009;-81
2023/09/06 06:49:08;;;;;;;2.77;2.00;;;17.00;99.90;;;;;;5073071;28;20441;-81
2023/09/06 06:51:39;;;;;;;4.93;2.13;;;17.10;99.90;;;;;;5073082;28;20465;-81
2023/09/06 06:54:07;;;;;;;2.50;2.30;;;17.20;99.90;;;;;;5073085;28;20793;-81
2023/09/06 06:56:34;;;;;;;7.27;2.60;;;17.40;99.90;;;;;;5073234;28;20477;-81
2023/09/06 06:59:01;;;;;;;3.97;2.27;;;17.50;99.90;;;;;;5073079;28;20437;-81
2023/09/06 07:01:28;;;;;;;2.40;2.20;;;17.60;99.90;;;;;;5073256;28;20440;-81
2023/09/06 07:03:55;;;;;;;4.47;1.80;;;17.70;99.90;;;;;;5073254;28;20449;-81
2023/09/06 07:06:22;;;;;;;4.00;2.40;;;17.70;99.90;;;;;;5072858;28;20989;-81
2023/09/06 07:08:50;;;;;;;3.17;1.70;;;17.80;99.90;;;;;;5073184;28;20806;-81
2023/09/06 07:11:17;;;;;;;2.70;2.47;;;17.90;99.90;;;;;;5073162;28;20456;-81
2023/09/06 07:13:47;;;;;;;2.33;2.10;;;18.00;99.90;;;;;;5072815;28;20960;-81
2023/09/06 07:16:15;;;;;;;3.53;1.83;;;18.10;99.90;;;;;;5073048;28;20510;-81
2023/09/06 07:18:42;;;;;;;3.93;2.07;;;18.30;99.90;;;;;;5073510;28;20855;-81
2023/09/06 07:21:09;;;;;;;3.70;2.20;;;18.40;99.90;;;;;;5073103;28;20440;-81
2023/09/06 07:23:36;;;;;;;2.63;2.03;;;18.50;99.90;;;;;;5073087;28;20457;-81
2023/09/06 07:26:05;;;;;;;3.80;2.00;;;18.70;99.90;;;;;;5072885;28;20495;-81
2023/09/06 07:28:38;;;;;;;2.13;2.00;;;18.70;99.90;;;;;;5072650;28;20469;-81
2023/09/06 07:31:05;;;;;;;2.70;2.00;;;18.80;99.90;;;;;;5073069;28;20474;-82
2023/09/06 07:33:32;;;;;;;2.33;2.13;;;18.90;99.90;;;;;;5072911;28;20441;-81
2023/09/06 07:35:59;;;;;;;2.80;1.63;;;18.90;99.90;;;;;;5072884;28;20464;-81
2023/09/06 07:38:26;;;;;;;2.27;1.93;;;19.00;99.90;;;;;;5072896;28;20437;-81
2023/09/06 07:40:57;;;;;;;3.00;2.20;;;19.10;99.90;;;;;;5073463;28;20432;-82
2023/09/06 07:43:28;;;;;;;4.30;2.10;;;19.20;99.90;;;;;;5072549;28;20938;-82
2023/09/06 07:45:56;;;;;;;4.73;1.97;;;19.20;99.90;;;;;;5072720;28;20492;-82
2023/09/06 07:48:23;;;;;;;3.63;1.90;;;19.30;99.90;;;;;;5072780;28;20658;-82
2023/09/06 07:50:50;;;;;;;3.93;2.10;;;19.30;99.90;;;;;;5072674;28;20451;-82
2023/09/06 07:53:16;;;;;;;3.53;1.93;;;19.40;99.90;;;;;;5072784;28;20449;-82
2023/09/06 07:55:45;;;;;;;4.97;1.93;;;19.50;99.90;;;;;;5072672;28;20465;-82
2023/09/06 07:58:12;;;;;;;2.27;1.90;;;19.60;99.90;;;;;;5076031;28;20432;-83
2023/09/06 08:00:41;;;;;;;3.90;2.13;;;19.70;99.90;;;;;;5076440;28;20441;-82
2023/09/06 08:03:08;;;;;;;1.83;1.73;;;19.80;99.90;;;;;;5076422;28;20444;-82
2023/09/06 08:05:35;;;;;;;1.93;1.70;;;20.00;99.90;;;;;;5076196;28;20487;-82
2023/09/06 08:08:02;;;;;;;5.17;2.33;;;20.20;99.90;;;;;;5076315;28;20441;-82
2023/09/06 08:10:28;;;;;;;2.90;1.47;;;20.30;99.90;;;;;;5076261;28;20452;-82
2023/09/06 08:12:55;;;;;;;7.20;1.53;;;20.30;99.90;;;;;;5076141;28;20440;-83
2023/09/06 08:15:22;;;;;;;1.90;1.60;;;20.40;99.90;;;;;;5076095;28;20440;-82
2023/09/06 08:17:51;;;;;;;3.10;1.30;;;20.50;99.90;;;;;;5076165;28;20449;-83
2023/09/06 08:20:18;;;;;;;2.60;2.37;;;20.50;99.90;;;;;;5075769;28;20950;-82
2023/09/06 08:22:45;;;;;;;3.87;2.67;;;20.60;99.90;;;;;;5076041;28;20451;-82
2023/09/06 08:25:13;;;;;;;1.73;1.63;;;20.90;99.90;;;;;;5075994;28;20490;-82
2023/09/06 08:27:39;;;;;;;3.73;2.20;;;21.00;99.90;;;;;;5075863;28;20870;-82
2023/09/06 08:30:10;;;;;;;2.83;2.53;;;21.00;99.90;;;;;;5075953;28;20960;-82
2023/09/06 08:32:37;;;;;;;1.97;1.70;;;21.10;99.90;;;;;;5076217;28;20433;-82
2023/09/06 08:35:06;;;;;;;2.40;2.20;;;21.10;99.90;;;;;;5075706;28;20448;-82
2023/09/06 08:37:33;;;;;;;3.87;1.83;;;21.20;99.90;;;;;;5075789;28;20490;-82
2023/09/06 08:40:00;;;;;;;2.20;1.77;;;21.40;99.90;;;;;;5075746;28;20448;-82
2023/09/06 08:42:33;;;;;;;3.00;1.73;;;21.50;99.90;;;;;;5075697;28;20441;-82
2023/09/06 08:45:00;;;;;;;2.47;2.10;;;21.80;99.90;;;;;;5075621;28;20433;-82
2023/09/06 08:47:27;;;;;;;2.43;2.00;;;22.00;99.90;;;;;;5075603;28;20494;-82
2023/09/06 08:49:55;;;;;;;1.60;1.50;;;21.90;99.90;;;;;;5076376;28;20463;-78
2023/09/06 08:52:24;;;;;;;2.27;2.00;;;22.00;99.90;;;;;;5075538;28;20443;-82
2023/09/06 08:54:51;;;;;;;1.93;1.73;;;22.20;99.90;;;;;;5075124;28;20571;-83
2023/09/06 08:57:18;;;;;;;2.13;1.93;;;22.40;99.90;;;;;;5075399;28;20902;-83
2023/09/06 08:59:47;;;;;;;4.60;2.50;;;22.50;99.90;;;;;;5075144;28;20432;-82
2023/09/06 09:02:14;;;;;;;4.93;2.20;;;22.60;99.90;;;;;;5075010;28;21010;-82
2023/09/06 09:04:42;;;;;;;1.83;1.73;;;23.00;99.90;;;;;;5075535;28;20204;-81
2023/09/06 09:07:09;;;;;;;1.70;1.60;;;23.40;99.90;;;;;;5075089;28;20222;-81
2023/09/06 09:09:55;;;;;;;1.63;1.53;;;23.60;99.90;;;;;;5074321;28;20550;-82
2023/09/06 09:12:24;;;;;;;1.30;1.20;;;23.70;99.90;;;;;;5075267;28;20224;-82
2023/09/06 09:14:51;;;;;;;3.60;1.77;;;23.60;99.90;;;;;;5074751;28;20675;-82
2023/09/06 09:17:21;;;;;;;3.00;2.08;;;23.70;99.90;;;;;;5074898;28;20218;-82
2023/09/06 09:19:49;;;;;;;2.13;1.38;;;23.90;99.90;;;;;;5074974;28;20248;-82
2023/09/06 09:22:16;;;;;;;1.95;1.85;;;24.10;99.90;;;;;;5074675;28;20187;-82
2023/09/06 09:24:45;;;;;;;2.92;1.63;;;24.30;99.90;;;;;;5074879;28;20198;-81
2023/09/06 09:27:11;;;;;;;2.42;2.22;;;24.60;99.90;;;;;;5074482;28;20217;-81
2023/09/06 09:29:39;;;;;;;1.67;1.55;;;24.90;99.90;;;;;;5074414;28;20230;-82
2023/09/06 09:32:06;;;;;;;1.70;1.30;;;25.10;99.90;;;;;;5074725;28;20228;-81
2023/09/06 09:34:34;;;;;;;3.38;2.38;;;25.10;99.90;;;;;;5074683;28;20206;-82
2023/09/06 09:37:05;;;;;;;1.40;1.30;;;24.90;99.90;;;;;;5074795;28;20576;-82
2023/09/06 09:39:32;;;;;;;3.22;1.80;;;24.90;99.90;;;;;;5074929;28;20277;-82
2023/09/06 09:42:00;;;;;;;1.52;1.40;;;24.90;99.90;;;;;;5074425;28;20230;-82
2023/09/06 09:44:28;;;;;;;5.50;1.75;;;24.80;99.90;;;;;;5074307;28;20281;-82
2023/09/06 09:46:57;;;;;;;1.90;1.30;;;24.70;99.90;;;;;;5074156;28;20254;-82
2023/09/06 09:49:25;;;;;;;1.75;1.52;;;24.70;99.90;;;;;;5074085;28;20213;-82
2023/09/06 09:51:52;;;;;;;1.75;1.55;;;24.70;99.90;;;;;;5074254;28;20568;-82
2023/09/06 09:54:24;;;;;;;1.92;1.75;;;24.70;99.90;;;;;;5074209;28;20202;-81
2023/09/06 09:57:04;;;;;;;3.10;1.95;;;24.70;99.90;;;;;;5074251;28;20218;-82
2023/09/06 09:59:32;;;;;;;2.35;1.50;;;24.70;99.90;;;;;;5074999;28;20210;-82
2023/09/06 10:02:01;;;;;;;2.33;1.90;;;24.80;99.90;;;;;;5073922;28;20201;-80
2023/09/06 10:04:30;;;;;;;2.15;1.48;;;24.90;99.90;;;;;;5074000;28;20207;-81
2023/09/06 10:06:59;;;;;;;4.60;1.77;;;25.00;99.90;;;;;;5073717;28;20238;-81
2023/09/06 10:09:27;;;;;;;2.38;2.13;;;25.00;99.90;;;;;;5073888;28;20233;-82
2023/09/06 10:11:56;;;;;;;4.50;1.60;;;25.00;99.90;;;;;;5073788;28;20210;-81
2023/09/06 10:14:26;;;;;;;1.80;1.70;;;25.00;99.90;;;;;;5073699;28;20209;-81
2023/09/06 10:16:54;;;;;;;2.35;1.60;;;25.00;99.90;;;;;;5073842;28;20271;-82
2023/09/06 10:19:22;;;;;;;1.90;1.80;;;25.10;99.90;;;;;;5073564;28;20206;-82
2023/09/06 10:21:49;;;;;;;2.03;1.83;;;25.10;99.90;;;;;;5073958;28;20229;-82
2023/09/06 10:24:17;;;;;;;2.28;1.88;;;25.20;99.90;;;;;;5073735;28;20194;-81
2023/09/06 10:26:47;;;;;;;2.17;1.70;;;25.50;99.90;;;;;;5073561;28;20681;-82
2023/09/06 10:29:19;;;;;;;3.55;2.38;;;25.80;99.90;;;;;;5073553;28;20426;-82
2023/09/06 10:31:53;;;;;;;1.70;1.60;;;25.80;99.90;;;;;;5073618;28;20706;-82
2023/09/06 10:34:20;;;;;;;4.22;2.22;;;25.90;99.90;;;;;;5074041;28;20209;-78
2023/09/06 10:36:56;;;;;;;2.03;1.67;;;25.80;99.90;;;;;;5073355;28;20260;-79
2023/09/06 10:39:25;;;;;;;4.78;2.38;;;25.70;99.90;;;;;;5073474;28;20198;-79
2023/09/06 10:42:18;;;;;;;2.05;1.90;;;25.70;99.90;;;;;;5073368;28;20201;-79
2023/09/06 10:45:11;;;;;;;2.53;2.05;;;25.70;99.90;;;;;;5073399;28;20225;-79
2023/09/06 10:47:40;;;;;;;2.58;1.80;;;25.70;99.90;;;;;;5073143;28;20229;-80
2023/09/06 10:50:12;;;;;;;1.77;1.67;;;25.80;99.90;;;;;;5073372;28;20198;-82
2023/09/06 10:52:41;;;;;;;2.15;1.80;;;25.90;99.90;;;;;;5073193;28;20659;-80
2023/09/06 10:55:13;;;;;;;2.13;1.98;;;26.10;99.90;;;;;;5074426;28;20297;-79
2023/09/06 10:57:52;;;;;;;2.45;1.90;;;26.10;99.90;;;;;;5073271;28;20186;-80
2023/09/06 11:00:21;;;;;;;2.15;1.73;;;26.10;99.90;;;;;;5073113;28;20179;-81
2023/09/06 11:03:17;;;;;;;2.65;2.03;;;26.30;99.90;;;;;;5073181;28;20210;-82
2023/09/06 11:05:46;;;;;;;3.20;1.77;;;26.50;99.90;;;;;;5073473;28;20214;-83
2023/09/06 11:08:24;;;;;;;1.58;1.38;;;26.30;99.90;;;;;;5073247;28;20591;-81
2023/09/06 11:10:53;;;;;;;3.38;1.80;;;26.30;99.90;;;;;;5073403;28;20194;-81
2023/09/06 11:13:20;;;;;;;2.20;1.88;;;26.30;99.90;;;;;;5073399;28;20225;-81
2023/09/06 11:15:51;;;;;;;2.30;2.10;;;26.30;99.90;;;;;;5072803;28;20768;-80
2023/09/06 11:18:19;;;;;;;2.00;1.90;;;26.20;99.90;;;;;;5072863;28;20198;-79
2023/09/06 11:20:50;;;;;;;2.10;1.83;;;26.10;99.90;;;;;;5072936;28;20205;-80
2023/09/06 11:23:17;;;;;;;2.42;1.85;;;25.90;99.90;;;;;;5072916;28;20206;-80
2023/09/06 11:25:45;;;;;;;1.98;1.88;;;26.00;99.90;;;;;;5072981;28;20268;-80
2023/09/06 11:28:17;;;;;;;3.08;1.92;;;26.00;99.90;;;;;;5072597;28;20276;-80
2023/09/06 11:30:46;;;;;;;3.92;2.40;;;26.00;99.90;;;;;;5072773;28;20194;-80
2023/09/06 11:33:15;;;;;;;1.88;1.77;;;26.10;99.90;;;;;;5075893;28;20663;-80
2023/09/06 11:35:51;;;;;;;2.45;1.80;;;26.20;99.90;;;;;;5076990;28;20224;-80
2023/09/06 11:38:24;;;;;;;4.00;2.05;;;26.10;99.90;;;;;;5076626;28;20186;-81
2023/09/06 11:40:52;;;;;;;3.55;2.08;;;26.10;99.90;;;;;;5076925;28;20182;-81
2023/09/06 11:43:23;;;;;;;2.13;1.92;;;26.10;99.90;;;;;;5076629;28;20194;-81
2023/09/06 11:45:53;;;;;;;3.60;2.35;;;26.10;99.90;;;;;;5076718;28;20287;-80
2023/09/06 11:48:25;;;;;;;3.05;2.35;;;26.00;99.90;;;;;;5076735;28;20206;-80
2023/09/06 11:51:01;;;;;;;1.70;1.60;;;26.00;99.90;;;;;;5076766;28;20194;-80
2023/09/06 11:53:30;;;;;;;2.38;2.13;;;25.90;99.90;;;;;;5076643;28;20194;-80
2023/09/06 11:55:59;;;;;;;3.97;1.63;;;25.80;99.90;;;;;;5076472;28;20300;-80
2023/09/06 11:58:27;;;;;;;2.80;2.45;;;25.80;99.90;;;;;;5076491;28;20202;-81
2023/09/06 12:00:56;;;;;;;2.88;2.10;;;25.80;99.90;;;;;;5076329;28;20198;-80
2023/09/06 12:03:29;;;;;;;2.63;2.40;;;25.90;99.90;;;;;;5076429;28;20201;-80
2023/09/06 12:06:00;;;;;;;2.70;2.20;;;25.80;99.90;;;;;;5076349;28;20226;-80
2023/09/06 12:08:29;;;;;;;2.38;2.17;;;25.80;99.90;;;;;;5075926;28;20576;-80
2023/09/06 12:11:05;;;;;;;2.85;2.50;;;26.00;99.90;;;;;;5076338;28;20202;-79
2023/09/06 12:13:35;;;;;;;6.10;2.10;;;25.80;99.90;;;;;;5076319;28;20193;-81
2023/09/06 12:16:02;;;;;;;2.22;2.03;;;25.60;99.90;;;;;;5076143;28;20222;-80
2023/09/06 12:18:30;;;;;;;2.65;2.45;;;25.40;99.90;;;;;;5076170;28;20205;-80
2023/09/06 12:20:59;;;;;;;3.45;2.53;;;25.40;99.90;;;;;;5076305;28;20202;-79
2023/09/06 12:23:28;;;;;;;2.80;2.13;;;25.40;99.90;;;;;;5076027;28;20233;-79
2023/09/06 12:25:55;;;;;;;2.45;2.25;;;25.50;99.90;;;;;;5075895;28;20233;-79
2023/09/06 12:28:22;;;;;;;2.70;1.88;;;25.50;99.90;;;;;;5075622;28;20328;-79
2023/09/06 12:30:53;;;;;;;1.80;1.70;;;25.60;99.90;;;;;;5075899;28;20232;-79
2023/09/06 12:33:21;;;;;;;1.95;1.77;;;25.60;99.90;;;;;;5076331;28;20660;-80
2023/09/06 12:35:51;;;;;;;2.65;1.90;;;25.50;99.90;;;;;;5075590;28;20264;-79
2023/09/06 12:38:19;;;;;;;1.48;1.38;;;25.60;99.90;;;;;;5075820;28;20704;-80
2023/09/06 12:40:46;;;;;;;2.55;2.00;;;25.60;99.90;;;;;;5075466;28;20198;-80
2023/09/06 12:43:14;;;;;;;2.28;2.08;;;25.60;99.90;;;;;;5074490;28;20198;-80
2023/09/06 12:45:41;;;;;;;2.67;2.47;;;25.60;99.90;;;;;;5075638;28;20226;-81
2023/09/06 12:48:08;;;;;;;5.10;1.95;;;25.50;99.90;;;;;;5075341;28;20213;-79
2023/09/06 12:50:35;;;;;;;3.42;1.77;;;25.60;99.90;;;;;;5075582;28;20563;-81
2023/09/06 12:53:02;;;;;;;2.25;2.05;;;25.40;99.90;;;;;;5075660;28;20205;-79
2023/09/06 12:55:30;;;;;;;1.90;1.80;;;25.40;99.90;;;;;;5075872;28;20316;-80